sensor_id;sensor_type;location;lat;lon;timestamp;temperature;humidity
54614;DHT22;40514;52.758;6.360;2022-12-29T00:02:17;9.70;99.90
54614;DHT22;40514;52.758;6.360;2022-12-29T00:04:43;9.80;99.90
54614;DHT22;40514;52.758;6.360;2022-12-29T00:07:08;9.80;99.90
54614;DHT22;40514;52.758;6.360;2022-12-29T00:09:35;9.80;99.90
54614;DHT22;40514;52.758;6.360;2022-12-29T00:12:01;9.80;99.90
54614;DHT22;40514;52.758;6.360;2022-12-29T00:14:27;9.80;99.90
54614;DHT22;40514;52.758;6.360;2022-12-29T00:17:12;9.80;99.90
54614;DHT22;40514;52.758;6.360;2022-12-29T00:19:38;9.80;99.90
54614;DHT22;40514;52.758;6.360;2022-12-29T00:22:23;9.80;99.90
54614;DHT22;40514;52.758;6.360;2022-12-29T00:25:11;9.80;99.90
54614;DHT22;40514;52.758;6.360;2022-12-29T00:27:56;9.80;99.90
54614;DHT22;40514;52.758;6.360;2022-12-29T00:30:40;9.90;99.90
54614;DHT22;40514;52.758;6.360;2022-12-29T00:33:32;9.80;99.90
54614;DHT22;40514;52.758;6.360;2022-12-29T00:36:27;9.80;99.90
54614;DHT22;40514;52.758;6.360;2022-12-29T00:39:03;9.80;99.90
54614;DHT22;40514;52.758;6.360;2022-12-29T00:41:50;9.80;99.90
54614;DHT22;40514;52.758;6.360;2022-12-29T00:44:34;9.90;99.90
54614;DHT22;40514;52.758;6.360;2022-12-29T00:47:00;9.90;99.90
54614;DHT22;40514;52.758;6.360;2022-12-29T00:49:29;9.80;99.90
54614;DHT22;40514;52.758;6.360;2022-12-29T00:52:03;9.80;99.90
54614;DHT22;40514;52.758;6.360;2022-12-29T00:54:30;9.90;99.90
54614;DHT22;40514;52.758;6.360;2022-12-29T00:56:57;9.90;99.90
54614;DHT22;40514;52.758;6.360;2022-12-29T00:59:22;9.80;99.90
54614;DHT22;40514;52.758;6.360;2022-12-29T01:01:50;9.80;99.90
54614;DHT22;40514;52.758;6.360;2022-12-29T01:04:16;9.80;99.90
54614;DHT22;40514;52.758;6.360;2022-12-29T01:06:42;9.90;99.90
54614;DHT22;40514;52.758;6.360;2022-12-29T01:09:08;9.90;99.90
54614;DHT22;40514;52.758;6.360;2022-12-29T01:11:53;9.90;99.90
54614;DHT22;40514;52.758;6.360;2022-12-29T01:14:19;9.90;99.90
54614;DHT22;40514;52.758;6.360;2022-12-29T01:16:45;9.90;99.90
54614;DHT22;40514;52.758;6.360;2022-12-29T01:19:12;9.90;99.90
54614;DHT22;40514;52.758;6.360;2022-12-29T01:21:38;10.00;99.90
54614;DHT22;40514;52.758;6.360;2022-12-29T01:24:04;9.90;99.90
54614;DHT22;40514;52.758;6.360;2022-12-29T01:26:29;9.90;99.90
54614;DHT22;40514;52.758;6.360;2022-12-29T01:28:55;9.90;99.90
54614;DHT22;40514;52.758;6.360;2022-12-29T01:31:21;10.00;99.90
54614;DHT22;40514;52.758;6.360;2022-12-29T01:33:46;10.00;99.90
54614;DHT22;40514;52.758;6.360;2022-12-29T01:36:14;9.90;99.90
54614;DHT22;40514;52.758;6.360;2022-12-29T01:38:40;9.90;99.90
54614;DHT22;40514;52.758;6.360;2022-12-29T01:41:07;10.00;99.90
54614;DHT22;40514;52.758;6.360;2022-12-29T01:43:50;10.00;99.90
54614;DHT22;40514;52.758;6.360;2022-12-29T01:46:39;10.00;99.90
54614;DHT22;40514;52.758;6.360;2022-12-29T01:49:21;10.00;99.90
54614;DHT22;40514;52.758;6.360;2022-12-29T01:51:49;10.00;99.90
54614;DHT22;40514;52.758;6.360;2022-12-29T01:54:24;10.10;99.90
54614;DHT22;40514;52.758;6.360;2022-12-29T01:56:53;10.00;99.90
54614;DHT22;40514;52.758;6.360;2022-12-29T01:59:24;10.00;99.90
54614;DHT22;40514;52.758;6.360;2022-12-29T02:01:51;10.00;99.90
54614;DHT22;40514;52.758;6.360;2022-12-29T02:04:17;10.00;99.90
54614;DHT22;40514;52.758;6.360;2022-12-29T02:07:08;10.10;99.90
54614;DHT22;40514;52.758;6.360;2022-12-29T02:09:32;10.10;99.90
54614;DHT22;40514;52.758;6.360;2022-12-29T02:11:58;10.10;99.90
54614;DHT22;40514;52.758;6.360;2022-12-29T02:14:24;10.10;99.90
54614;DHT22;40514;52.758;6.360;2022-12-29T02:17:34;10.10;99.90
54614;DHT22;40514;52.758;6.360;2022-12-29T02:31:24;10.10;99.90
54614;DHT22;40514;52.758;6.360;2022-12-29T02:34:22;10.10;99.90
54614;DHT22;40514;52.758;6.360;2022-12-29T02:40:19;10.10;99.90
54614;DHT22;40514;52.758;6.360;2022-12-29T02:45:51;10.10;99.90
54614;DHT22;40514;52.758;6.360;2022-12-29T02:48:39;10.00;99.90
54614;DHT22;40514;52.758;6.360;2022-12-29T02:51:19;10.10;99.90
54614;DHT22;40514;52.758;6.360;2022-12-29T02:53:46;10.10;99.90
54614;DHT22;40514;52.758;6.360;2022-12-29T02:56:30;10.10;99.90
54614;DHT22;40514;52.758;6.360;2022-12-29T02:58:57;10.10;99.90
54614;DHT22;40514;52.758;6.360;2022-12-29T03:01:39;10.10;99.90
54614;DHT22;40514;52.758;6.360;2022-12-29T03:04:50;10.10;99.90
54614;DHT22;40514;52.758;6.360;2022-12-29T03:07:23;10.00;99.90
54614;DHT22;40514;52.758;6.360;2022-12-29T03:10:15;10.10;99.90
54614;DHT22;40514;52.758;6.360;2022-12-29T03:12:48;10.10;99.90
54614;DHT22;40514;52.758;6.360;2022-12-29T03:15:43;10.00;99.90
54614;DHT22;40514;52.758;6.360;2022-12-29T03:23:48;10.10;99.90
54614;DHT22;40514;52.758;6.360;2022-12-29T03:26:16;10.10;99.90
54614;DHT22;40514;52.758;6.360;2022-12-29T03:29:02;10.10;99.90
54614;DHT22;40514;52.758;6.360;2022-12-29T03:31:29;10.00;99.90
54614;DHT22;40514;52.758;6.360;2022-12-29T03:33:56;10.10;99.90
54614;DHT22;40514;52.758;6.360;2022-12-29T03:36:32;10.10;99.90
54614;DHT22;40514;52.758;6.360;2022-12-29T03:39:10;10.10;99.90
54614;DHT22;40514;52.758;6.360;2022-12-29T03:41:42;10.10;99.90
54614;DHT22;40514;52.758;6.360;2022-12-29T03:44:10;10.10;99.90
54614;DHT22;40514;52.758;6.360;2022-12-29T03:46:36;10.10;99.90
54614;DHT22;40514;52.758;6.360;2022-12-29T03:49:01;10.10;99.90
54614;DHT22;40514;52.758;6.360;2022-12-29T03:51:27;10.10;99.90
54614;DHT22;40514;52.758;6.360;2022-12-29T03:53:52;10.00;99.90
54614;DHT22;40514;52.758;6.360;2022-12-29T03:56:18;9.90;99.90
54614;DHT22;40514;52.758;6.360;2022-12-29T03:58:43;10.00;99.90
54614;DHT22;40514;52.758;6.360;2022-12-29T04:01:09;9.90;99.90
54614;DHT22;40514;52.758;6.360;2022-12-29T04:03:34;9.90;99.90
54614;DHT22;40514;52.758;6.360;2022-12-29T04:06:00;9.80;99.90
54614;DHT22;40514;52.758;6.360;2022-12-29T04:08:25;9.70;99.90
54614;DHT22;40514;52.758;6.360;2022-12-29T04:10:51;9.70;99.90
54614;DHT22;40514;52.758;6.360;2022-12-29T04:13:17;9.70;99.90
54614;DHT22;40514;52.758;6.360;2022-12-29T04:15:43;9.70;99.90
54614;DHT22;40514;52.758;6.360;2022-12-29T04:18:10;9.60;99.90
54614;DHT22;40514;52.758;6.360;2022-12-29T04:20:36;9.60;99.90
54614;DHT22;40514;52.758;6.360;2022-12-29T04:23:20;9.60;99.90
54614;DHT22;40514;52.758;6.360;2022-12-29T04:25:46;9.60;99.90
54614;DHT22;40514;52.758;6.360;2022-12-29T04:28:15;9.60;99.90
54614;DHT22;40514;52.758;6.360;2022-12-29T04:30:43;9.50;99.90
54614;DHT22;40514;52.758;6.360;2022-12-29T04:33:08;9.50;99.90
54614;DHT22;40514;52.758;6.360;2022-12-29T04:35:34;9.50;99.90
54614;DHT22;40514;52.758;6.360;2022-12-29T04:37:59;9.50;99.90
54614;DHT22;40514;52.758;6.360;2022-12-29T04:40:25;9.40;99.90
54614;DHT22;40514;52.758;6.360;2022-12-29T04:42:51;9.40;99.90
54614;DHT22;40514;52.758;6.360;2022-12-29T04:45:16;9.40;99.90
54614;DHT22;40514;52.758;6.360;2022-12-29T04:47:42;9.50;99.90
54614;DHT22;40514;52.758;6.360;2022-12-29T04:50:08;9.40;99.90
54614;DHT22;40514;52.758;6.360;2022-12-29T04:52:34;9.40;99.90
54614;DHT22;40514;52.758;6.360;2022-12-29T04:55:00;9.30;99.90
54614;DHT22;40514;52.758;6.360;2022-12-29T04:57:26;9.40;99.90
54614;DHT22;40514;52.758;6.360;2022-12-29T04:59:51;9.30;99.90
54614;DHT22;40514;52.758;6.360;2022-12-29T05:02:17;9.30;99.90
54614;DHT22;40514;52.758;6.360;2022-12-29T05:04:42;9.30;99.90
54614;DHT22;40514;52.758;6.360;2022-12-29T05:07:08;9.30;99.90
54614;DHT22;40514;52.758;6.360;2022-12-29T05:09:34;9.30;99.90
54614;DHT22;40514;52.758;6.360;2022-12-29T05:11:59;9.30;99.90
54614;DHT22;40514;52.758;6.360;2022-12-29T05:14:25;9.40;99.90
54614;DHT22;40514;52.758;6.360;2022-12-29T05:16:50;9.50;99.90
54614;DHT22;40514;52.758;6.360;2022-12-29T05:19:16;9.30;99.90
54614;DHT22;40514;52.758;6.360;2022-12-29T05:21:42;9.30;99.90
54614;DHT22;40514;52.758;6.360;2022-12-29T05:24:07;9.30;99.90
54614;DHT22;40514;52.758;6.360;2022-12-29T05:26:33;9.30;99.90
54614;DHT22;40514;52.758;6.360;2022-12-29T05:28:58;9.30;99.90
54614;DHT22;40514;52.758;6.360;2022-12-29T05:31:25;9.30;99.90
54614;DHT22;40514;52.758;6.360;2022-12-29T05:33:51;9.30;99.90
54614;DHT22;40514;52.758;6.360;2022-12-29T05:36:17;9.30;99.90
54614;DHT22;40514;52.758;6.360;2022-12-29T05:38:42;9.30;99.90
54614;DHT22;40514;52.758;6.360;2022-12-29T05:41:08;9.30;99.90
54614;DHT22;40514;52.758;6.360;2022-12-29T05:43:33;9.30;99.90
54614;DHT22;40514;52.758;6.360;2022-12-29T05:45:59;9.30;99.90
54614;DHT22;40514;52.758;6.360;2022-12-29T05:48:25;9.20;99.90
54614;DHT22;40514;52.758;6.360;2022-12-29T05:50:51;9.30;99.90
54614;DHT22;40514;52.758;6.360;2022-12-29T05:53:17;9.20;99.90
54614;DHT22;40514;52.758;6.360;2022-12-29T05:55:44;9.20;99.90
54614;DHT22;40514;52.758;6.360;2022-12-29T05:58:10;9.20;99.90
54614;DHT22;40514;52.758;6.360;2022-12-29T06:00:35;9.20;99.90
54614;DHT22;40514;52.758;6.360;2022-12-29T06:03:01;9.20;99.90
54614;DHT22;40514;52.758;6.360;2022-12-29T06:05:26;9.10;99.90
54614;DHT22;40514;52.758;6.360;2022-12-29T06:07:52;9.10;99.90
54614;DHT22;40514;52.758;6.360;2022-12-29T06:10:17;9.00;99.90
54614;DHT22;40514;52.758;6.360;2022-12-29T06:12:43;9.00;99.90
54614;DHT22;40514;52.758;6.360;2022-12-29T06:15:09;9.00;99.90
54614;DHT22;40514;52.758;6.360;2022-12-29T06:17:35;9.00;99.90
54614;DHT22;40514;52.758;6.360;2022-12-29T06:20:01;9.00;99.90
54614;DHT22;40514;52.758;6.360;2022-12-29T06:22:27;9.10;99.90
54614;DHT22;40514;52.758;6.360;2022-12-29T06:24:52;9.00;99.90
54614;DHT22;40514;52.758;6.360;2022-12-29T06:27:18;9.10;99.90
54614;DHT22;40514;52.758;6.360;2022-12-29T06:29:43;9.10;99.90
54614;DHT22;40514;52.758;6.360;2022-12-29T06:32:09;9.10;99.90
54614;DHT22;40514;52.758;6.360;2022-12-29T06:34:35;9.10;99.90
54614;DHT22;40514;52.758;6.360;2022-12-29T06:37:00;9.10;99.90
54614;DHT22;40514;52.758;6.360;2022-12-29T06:39:27;9.10;99.90
54614;DHT22;40514;52.758;6.360;2022-12-29T06:41:53;9.10;99.90
54614;DHT22;40514;52.758;6.360;2022-12-29T06:44:20;9.10;99.90
54614;DHT22;40514;52.758;6.360;2022-12-29T06:46:45;9.10;99.90
54614;DHT22;40514;52.758;6.360;2022-12-29T06:49:11;9.10;99.90
54614;DHT22;40514;52.758;6.360;2022-12-29T06:51:36;9.10;99.90
54614;DHT22;40514;52.758;6.360;2022-12-29T06:54:02;9.10;99.90
54614;DHT22;40514;52.758;6.360;2022-12-29T06:56:27;9.10;99.90
54614;DHT22;40514;52.758;6.360;2022-12-29T06:58:53;9.20;99.90
54614;DHT22;40514;52.758;6.360;2022-12-29T07:01:18;9.20;99.90
54614;DHT22;40514;52.758;6.360;2022-12-29T07:03:44;9.20;99.90
54614;DHT22;40514;52.758;6.360;2022-12-29T07:06:10;9.20;99.90
54614;DHT22;40514;52.758;6.360;2022-12-29T07:08:35;9.20;99.90
54614;DHT22;40514;52.758;6.360;2022-12-29T07:11:01;9.20;99.90
54614;DHT22;40514;52.758;6.360;2022-12-29T07:13:26;9.20;99.90
54614;DHT22;40514;52.758;6.360;2022-12-29T07:15:52;9.20;99.90
54614;DHT22;40514;52.758;6.360;2022-12-29T07:18:17;9.10;99.90
54614;DHT22;40514;52.758;6.360;2022-12-29T07:20:43;9.10;99.90
54614;DHT22;40514;52.758;6.360;2022-12-29T07:23:09;9.10;99.90
54614;DHT22;40514;52.758;6.360;2022-12-29T07:25:34;9.10;99.90
54614;DHT22;40514;52.758;6.360;2022-12-29T07:28:02;9.10;99.90
54614;DHT22;40514;52.758;6.360;2022-12-29T07:30:27;9.10;99.90
54614;DHT22;40514;52.758;6.360;2022-12-29T07:32:53;9.10;99.90
54614;DHT22;40514;52.758;6.360;2022-12-29T07:35:18;9.10;99.90
54614;DHT22;40514;52.758;6.360;2022-12-29T07:37:44;9.10;99.90
54614;DHT22;40514;52.758;6.360;2022-12-29T07:40:10;9.20;99.90
54614;DHT22;40514;52.758;6.360;2022-12-29T07:42:36;9.20;99.90
54614;DHT22;40514;52.758;6.360;2022-12-29T07:45:01;9.20;99.90
54614;DHT22;40514;52.758;6.360;2022-12-29T07:47:27;9.20;99.90
54614;DHT22;40514;52.758;6.360;2022-12-29T07:49:53;9.20;99.90
54614;DHT22;40514;52.758;6.360;2022-12-29T07:52:18;9.20;99.90
54614;DHT22;40514;52.758;6.360;2022-12-29T07:54:44;9.20;99.90
54614;DHT22;40514;52.758;6.360;2022-12-29T07:57:09;9.20;99.90
54614;DHT22;40514;52.758;6.360;2022-12-29T07:59:35;9.20;99.90
54614;DHT22;40514;52.758;6.360;2022-12-29T08:02:01;9.10;99.90
54614;DHT22;40514;52.758;6.360;2022-12-29T08:04:26;9.20;99.90
54614;DHT22;40514;52.758;6.360;2022-12-29T08:06:52;9.20;99.90
54614;DHT22;40514;52.758;6.360;2022-12-29T08:09:17;9.20;99.90
54614;DHT22;40514;52.758;6.360;2022-12-29T08:11:43;9.20;99.90
54614;DHT22;40514;52.758;6.360;2022-12-29T08:14:09;9.20;99.90
54614;DHT22;40514;52.758;6.360;2022-12-29T08:16:35;9.20;99.90
54614;DHT22;40514;52.758;6.360;2022-12-29T08:19:00;9.20;99.90
54614;DHT22;40514;52.758;6.360;2022-12-29T08:21:29;9.20;99.90
54614;DHT22;40514;52.758;6.360;2022-12-29T08:23:55;9.20;99.90
54614;DHT22;40514;52.758;6.360;2022-12-29T08:26:21;9.20;99.90
54614;DHT22;40514;52.758;6.360;2022-12-29T08:28:47;9.30;99.90
54614;DHT22;40514;52.758;6.360;2022-12-29T08:31:12;9.30;99.90
54614;DHT22;40514;52.758;6.360;2022-12-29T08:33:38;9.30;99.90
54614;DHT22;40514;52.758;6.360;2022-12-29T08:36:05;9.30;99.90
54614;DHT22;40514;52.758;6.360;2022-12-29T08:38:32;9.30;99.90
54614;DHT22;40514;52.758;6.360;2022-12-29T08:40:58;9.40;99.90
54614;DHT22;40514;52.758;6.360;2022-12-29T08:43:24;9.40;99.90
54614;DHT22;40514;52.758;6.360;2022-12-29T08:45:50;9.40;99.90
54614;DHT22;40514;52.758;6.360;2022-12-29T08:48:16;9.40;99.90
54614;DHT22;40514;52.758;6.360;2022-12-29T08:50:45;9.40;99.90
54614;DHT22;40514;52.758;6.360;2022-12-29T08:53:10;9.50;99.90
54614;DHT22;40514;52.758;6.360;2022-12-29T08:55:36;9.50;99.90
54614;DHT22;40514;52.758;6.360;2022-12-29T08:58:02;9.50;99.90
54614;DHT22;40514;52.758;6.360;2022-12-29T09:00:27;9.40;99.90
54614;DHT22;40514;52.758;6.360;2022-12-29T09:02:53;9.50;99.90
54614;DHT22;40514;52.758;6.360;2022-12-29T09:05:18;9.40;99.90
54614;DHT22;40514;52.758;6.360;2022-12-29T09:07:44;9.10;99.90
54614;DHT22;40514;52.758;6.360;2022-12-29T09:10:09;9.30;99.90
54614;DHT22;40514;52.758;6.360;2022-12-29T09:12:35;9.20;99.90
54614;DHT22;40514;52.758;6.360;2022-12-29T09:15:01;9.10;99.90
54614;DHT22;40514;52.758;6.360;2022-12-29T09:17:26;9.10;99.90
54614;DHT22;40514;52.758;6.360;2022-12-29T09:20:16;10.30;99.90
54614;DHT22;40514;52.758;6.360;2022-12-29T09:22:43;9.50;99.90
54614;DHT22;40514;52.758;6.360;2022-12-29T09:25:10;9.00;99.90
54614;DHT22;40514;52.758;6.360;2022-12-29T09:27:36;9.00;99.90
54614;DHT22;40514;52.758;6.360;2022-12-29T09:30:04;9.00;99.90
54614;DHT22;40514;52.758;6.360;2022-12-29T09:32:31;9.00;99.90
54614;DHT22;40514;52.758;6.360;2022-12-29T09:34:56;9.00;99.90
54614;DHT22;40514;52.758;6.360;2022-12-29T09:37:22;9.00;99.90
54614;DHT22;40514;52.758;6.360;2022-12-29T09:39:47;9.10;99.90
54614;DHT22;40514;52.758;6.360;2022-12-29T09:42:27;9.10;99.90
54614;DHT22;40514;52.758;6.360;2022-12-29T09:45:17;9.00;99.90
54614;DHT22;40514;52.758;6.360;2022-12-29T09:47:45;9.00;99.90
54614;DHT22;40514;52.758;6.360;2022-12-29T09:55:25;9.00;99.90
54614;DHT22;40514;52.758;6.360;2022-12-29T09:57:59;9.00;99.90
54614;DHT22;40514;52.758;6.360;2022-12-29T10:00:46;8.90;99.90
54614;DHT22;40514;52.758;6.360;2022-12-29T10:03:17;9.00;99.90
54614;DHT22;40514;52.758;6.360;2022-12-29T10:05:53;9.00;99.90
54614;DHT22;40514;52.758;6.360;2022-12-29T10:17:27;9.10;99.90
54614;DHT22;40514;52.758;6.360;2022-12-29T10:25:43;9.20;99.90
54614;DHT22;40514;52.758;6.360;2022-12-29T10:28:21;9.10;99.90
54614;DHT22;40514;52.758;6.360;2022-12-29T10:30:48;9.00;99.90
54614;DHT22;40514;52.758;6.360;2022-12-29T10:33:21;9.00;99.90
54614;DHT22;40514;52.758;6.360;2022-12-29T10:35:50;8.90;99.90
54614;DHT22;40514;52.758;6.360;2022-12-29T10:38:22;8.90;99.90
54614;DHT22;40514;52.758;6.360;2022-12-29T10:41:02;8.90;99.90
54614;DHT22;40514;52.758;6.360;2022-12-29T10:43:36;8.90;99.90
54614;DHT22;40514;52.758;6.360;2022-12-29T10:46:10;8.80;99.90
54614;DHT22;40514;52.758;6.360;2022-12-29T10:48:38;8.80;99.90
54614;DHT22;40514;52.758;6.360;2022-12-29T10:51:07;8.90;99.90
54614;DHT22;40514;52.758;6.360;2022-12-29T10:53:42;8.90;99.90
54614;DHT22;40514;52.758;6.360;2022-12-29T10:56:28;8.90;99.90
54614;DHT22;40514;52.758;6.360;2022-12-29T10:58:56;9.00;99.90
54614;DHT22;40514;52.758;6.360;2022-12-29T11:01:23;9.00;99.90
54614;DHT22;40514;52.758;6.360;2022-12-29T11:04:01;8.90;99.90
54614;DHT22;40514;52.758;6.360;2022-12-29T11:06:28;9.00;99.90
54614;DHT22;40514;52.758;6.360;2022-12-29T11:09:08;8.90;99.90
54614;DHT22;40514;52.758;6.360;2022-12-29T11:11:36;8.80;99.90
54614;DHT22;40514;52.758;6.360;2022-12-29T11:14:12;8.80;99.90
54614;DHT22;40514;52.758;6.360;2022-12-29T11:16:39;8.80;99.90
54614;DHT22;40514;52.758;6.360;2022-12-29T11:19:23;8.70;99.90
54614;DHT22;40514;52.758;6.360;2022-12-29T11:21:49;8.80;99.90
54614;DHT22;40514;52.758;6.360;2022-12-29T11:24:21;8.80;99.90
54614;DHT22;40514;52.758;6.360;2022-12-29T11:26:49;8.80;99.90
54614;DHT22;40514;52.758;6.360;2022-12-29T11:29:27;8.80;99.90
54614;DHT22;40514;52.758;6.360;2022-12-29T11:31:58;8.80;99.90
54614;DHT22;40514;52.758;6.360;2022-12-29T11:34:33;8.80;99.90
54614;DHT22;40514;52.758;6.360;2022-12-29T11:37:27;8.80;99.90
54614;DHT22;40514;52.758;6.360;2022-12-29T11:42:39;8.80;99.90
54614;DHT22;40514;52.758;6.360;2022-12-29T11:45:14;8.80;99.90
54614;DHT22;40514;52.758;6.360;2022-12-29T11:47:42;8.70;99.90
54614;DHT22;40514;52.758;6.360;2022-12-29T11:50:18;8.80;99.90
54614;DHT22;40514;52.758;6.360;2022-12-29T11:52:45;8.70;99.90
54614;DHT22;40514;52.758;6.360;2022-12-29T11:55:23;8.70;99.90
54614;DHT22;40514;52.758;6.360;2022-12-29T11:57:51;8.70;99.90
54614;DHT22;40514;52.758;6.360;2022-12-29T12:00:22;8.70;99.90
54614;DHT22;40514;52.758;6.360;2022-12-29T12:05:51;8.70;99.90
54614;DHT22;40514;52.758;6.360;2022-12-29T12:08:38;8.70;99.90
54614;DHT22;40514;52.758;6.360;2022-12-29T12:11:12;8.80;99.90
54614;DHT22;40514;52.758;6.360;2022-12-29T12:14:00;8.80;99.90
54614;DHT22;40514;52.758;6.360;2022-12-29T12:16:33;8.80;99.90
54614;DHT22;40514;52.758;6.360;2022-12-29T12:19:09;8.80;99.90
54614;DHT22;40514;52.758;6.360;2022-12-29T12:21:40;8.80;99.90
54614;DHT22;40514;52.758;6.360;2022-12-29T12:24:37;8.80;99.90
54614;DHT22;40514;52.758;6.360;2022-12-29T12:27:10;8.90;99.90
54614;DHT22;40514;52.758;6.360;2022-12-29T12:30:02;8.80;99.90
54614;DHT22;40514;52.758;6.360;2022-12-29T12:35:00;8.80;99.90
54614;DHT22;40514;52.758;6.360;2022-12-29T12:40:31;8.80;99.90
54614;DHT22;40514;52.758;6.360;2022-12-29T12:51:21;9.10;99.90
54614;DHT22;40514;52.758;6.360;2022-12-29T12:54:16;9.00;99.90
54614;DHT22;40514;52.758;6.360;2022-12-29T12:57:07;9.00;99.90
54614;DHT22;40514;52.758;6.360;2022-12-29T12:59:52;9.00;99.90
54614;DHT22;40514;52.758;6.360;2022-12-29T13:05:29;8.90;99.90
54614;DHT22;40514;52.758;6.360;2022-12-29T13:08:27;8.90;99.90
54614;DHT22;40514;52.758;6.360;2022-12-29T13:13:58;9.00;99.90
54614;DHT22;40514;52.758;6.360;2022-12-29T13:16:51;9.00;99.90
54614;DHT22;40514;52.758;6.360;2022-12-29T13:19:36;9.10;99.90
54614;DHT22;40514;52.758;6.360;2022-12-29T13:22:25;9.30;99.90
54614;DHT22;40514;52.758;6.360;2022-12-29T13:27:53;9.30;99.90
54614;DHT22;40514;52.758;6.360;2022-12-29T13:30:42;9.30;99.90
54614;DHT22;40514;52.758;6.360;2022-12-29T13:33:40;9.20;99.90
54614;DHT22;40514;52.758;6.360;2022-12-29T13:36:56;9.20;99.90
54614;DHT22;40514;52.758;6.360;2022-12-29T13:39:11;9.10;99.90
54614;DHT22;40514;52.758;6.360;2022-12-29T13:41:50;9.10;99.90
54614;DHT22;40514;52.758;6.360;2022-12-29T13:44:22;9.00;99.90
54614;DHT22;40514;52.758;6.360;2022-12-29T13:46:48;9.00;99.90
54614;DHT22;40514;52.758;6.360;2022-12-29T13:49:19;9.00;99.90
54614;DHT22;40514;52.758;6.360;2022-12-29T13:51:54;9.00;99.90
54614;DHT22;40514;52.758;6.360;2022-12-29T13:54:42;9.00;99.90
54614;DHT22;40514;52.758;6.360;2022-12-29T13:59:59;9.10;99.90
54614;DHT22;40514;52.758;6.360;2022-12-29T14:03:12;9.00;99.90
54614;DHT22;40514;52.758;6.360;2022-12-29T14:05:44;9.00;99.90
54614;DHT22;40514;52.758;6.360;2022-12-29T14:08:17;8.90;99.90
54614;DHT22;40514;52.758;6.360;2022-12-29T14:10:50;9.00;99.90
54614;DHT22;40514;52.758;6.360;2022-12-29T14:13:22;8.90;99.90
54614;DHT22;40514;52.758;6.360;2022-12-29T14:15:56;8.90;99.90
54614;DHT22;40514;52.758;6.360;2022-12-29T14:18:28;8.90;99.90
54614;DHT22;40514;52.758;6.360;2022-12-29T14:23:39;8.80;99.90
54614;DHT22;40514;52.758;6.360;2022-12-29T14:36:36;8.80;99.90
54614;DHT22;40514;52.758;6.360;2022-12-29T14:39:04;8.80;99.90
54614;DHT22;40514;52.758;6.360;2022-12-29T14:41:36;8.70;99.90
54614;DHT22;40514;52.758;6.360;2022-12-29T14:44:18;8.80;99.90
54614;DHT22;40514;52.758;6.360;2022-12-29T14:49:27;8.70;99.90
54614;DHT22;40514;52.758;6.360;2022-12-29T14:52:05;8.70;99.90
54614;DHT22;40514;52.758;6.360;2022-12-29T14:57:03;8.70;99.90
54614;DHT22;40514;52.758;6.360;2022-12-29T14:59:30;8.70;99.90
54614;DHT22;40514;52.758;6.360;2022-12-29T15:01:58;8.70;99.90
54614;DHT22;40514;52.758;6.360;2022-12-29T15:04:30;8.70;99.90
54614;DHT22;40514;52.758;6.360;2022-12-29T15:06:56;8.70;99.90
54614;DHT22;40514;52.758;6.360;2022-12-29T15:14:50;8.60;99.90
54614;DHT22;40514;52.758;6.360;2022-12-29T15:17:33;8.50;99.90
54614;DHT22;40514;52.758;6.360;2022-12-29T15:20:03;8.50;99.90
54614;DHT22;40514;52.758;6.360;2022-12-29T15:22:43;8.40;99.90
54614;DHT22;40514;52.758;6.360;2022-12-29T15:25:15;8.40;99.90
54614;DHT22;40514;52.758;6.360;2022-12-29T15:27:41;8.30;99.90
54614;DHT22;40514;52.758;6.360;2022-12-29T15:30:13;8.30;99.90
54614;DHT22;40514;52.758;6.360;2022-12-29T15:32:42;8.30;99.90
54614;DHT22;40514;52.758;6.360;2022-12-29T15:37:54;8.20;99.90
54614;DHT22;40514;52.758;6.360;2022-12-29T15:40:27;8.20;99.90
54614;DHT22;40514;52.758;6.360;2022-12-29T15:43:15;8.20;99.90
54614;DHT22;40514;52.758;6.360;2022-12-29T15:45:46;8.20;99.90
54614;DHT22;40514;52.758;6.360;2022-12-29T15:48:17;8.20;99.90
54614;DHT22;40514;52.758;6.360;2022-12-29T15:50:44;8.30;99.90
54614;DHT22;40514;52.758;6.360;2022-12-29T15:53:23;9.10;99.90
54614;DHT22;40514;52.758;6.360;2022-12-29T15:55:50;8.40;99.90
54614;DHT22;40514;52.758;6.360;2022-12-29T15:58:20;8.40;99.90
54614;DHT22;40514;52.758;6.360;2022-12-29T16:00:57;8.40;99.90
54614;DHT22;40514;52.758;6.360;2022-12-29T16:03:25;8.30;99.90
54614;DHT22;40514;52.758;6.360;2022-12-29T16:05:54;8.40;99.90
54614;DHT22;40514;52.758;6.360;2022-12-29T16:08:36;8.40;99.90
54614;DHT22;40514;52.758;6.360;2022-12-29T16:11:31;8.30;99.90
54614;DHT22;40514;52.758;6.360;2022-12-29T16:13:57;8.30;99.90
54614;DHT22;40514;52.758;6.360;2022-12-29T16:16:29;8.30;99.90
54614;DHT22;40514;52.758;6.360;2022-12-29T16:18:55;8.30;99.90
54614;DHT22;40514;52.758;6.360;2022-12-29T16:21:31;8.30;99.90
54614;DHT22;40514;52.758;6.360;2022-12-29T16:24:08;8.30;99.90
54614;DHT22;40514;52.758;6.360;2022-12-29T16:26:34;8.20;99.90
54614;DHT22;40514;52.758;6.360;2022-12-29T16:29:01;8.20;99.90
54614;DHT22;40514;52.758;6.360;2022-12-29T16:39:53;8.20;99.90
54614;DHT22;40514;52.758;6.360;2022-12-29T16:42:35;8.20;99.90
54614;DHT22;40514;52.758;6.360;2022-12-29T16:48:29;8.10;99.90
54614;DHT22;40514;52.758;6.360;2022-12-29T16:51:05;8.10;99.90
54614;DHT22;40514;52.758;6.360;2022-12-29T16:53:37;8.10;99.90
54614;DHT22;40514;52.758;6.360;2022-12-29T16:56:17;8.10;99.90
54614;DHT22;40514;52.758;6.360;2022-12-29T16:58:47;8.10;99.90
54614;DHT22;40514;52.758;6.360;2022-12-29T17:01:13;8.10;99.90
54614;DHT22;40514;52.758;6.360;2022-12-29T17:03:50;8.10;99.90
54614;DHT22;40514;52.758;6.360;2022-12-29T17:06:18;8.20;99.90
54614;DHT22;40514;52.758;6.360;2022-12-29T17:08:45;8.10;99.90
54614;DHT22;40514;52.758;6.360;2022-12-29T17:11:30;8.10;99.90
54614;DHT22;40514;52.758;6.360;2022-12-29T17:14:43;8.20;99.90
54614;DHT22;40514;52.758;6.360;2022-12-29T17:17:19;8.10;99.90
54614;DHT22;40514;52.758;6.360;2022-12-29T17:19:49;8.20;99.90
54614;DHT22;40514;52.758;6.360;2022-12-29T17:22:24;8.10;99.90
54614;DHT22;40514;52.758;6.360;2022-12-29T17:24:53;8.10;99.90
54614;DHT22;40514;52.758;6.360;2022-12-29T17:27:26;8.10;99.90
54614;DHT22;40514;52.758;6.360;2022-12-29T17:29:56;8.10;99.90
54614;DHT22;40514;52.758;6.360;2022-12-29T17:32:22;8.10;99.90
54614;DHT22;40514;52.758;6.360;2022-12-29T17:34:48;8.10;99.90
54614;DHT22;40514;52.758;6.360;2022-12-29T17:37:30;8.10;99.90
54614;DHT22;40514;52.758;6.360;2022-12-29T17:39:56;8.00;99.90
54614;DHT22;40514;52.758;6.360;2022-12-29T17:42:21;8.00;99.90
54614;DHT22;40514;52.758;6.360;2022-12-29T17:44:47;7.90;99.90
54614;DHT22;40514;52.758;6.360;2022-12-29T17:47:13;7.90;99.90
54614;DHT22;40514;52.758;6.360;2022-12-29T17:49:40;8.00;99.90
54614;DHT22;40514;52.758;6.360;2022-12-29T17:52:16;8.00;99.90
54614;DHT22;40514;52.758;6.360;2022-12-29T17:54:48;8.00;99.90
54614;DHT22;40514;52.758;6.360;2022-12-29T17:57:15;8.00;99.90
54614;DHT22;40514;52.758;6.360;2022-12-29T17:59:41;8.00;99.90
54614;DHT22;40514;52.758;6.360;2022-12-29T18:02:26;8.10;99.90
54614;DHT22;40514;52.758;6.360;2022-12-29T18:04:52;8.10;99.90